METAR Data
IDs: Format: Raw Decoded Include TAF

Data at: 0127 UTC 24 May 2019

METAR for:PADU (Dutch Harbor/Madsen, AK, US)
Text:PADU 240056Z 05006KT 10SM BKN040 BKN100 08/03 A3016 RMK AO2 SLP217 T00830028
Temperature: 8.3°C ( 47°F)
Dewpoint: 2.8°C ( 37°F) [RH = 68%]
Pressure (altimeter):30.16 inches Hg (1021.4 mb) [Sea level pressure: 1021.7 mb]
Winds:from the NE (50 degrees) at 7 MPH (6 knots; 3.1 m/s)
Visibility:10 or more sm (16+ km)
Ceiling:4000 feet AGL
Clouds: broken clouds at 4000 feet AGL, broken clouds at 10000 feet AGL
Text:PADU 232356Z VRB04KT 10SM BKN040 BKN100 08/03 A3017 RMK AO2 SLP220 T00780033 10078 20061 56002
Temperature: 7.8°C ( 46°F)
Dewpoint: 3.3°C ( 38°F) [RH = 73%]
Pressure (altimeter):30.17 inches Hg (1021.8 mb) [Sea level pressure: 1022.0 mb]
Winds:variable direction winds at 5 MPH (4 knots; 2.1 m/s)
Visibility:10 or more sm (16+ km)
Ceiling:4000 feet AGL
Clouds: broken clouds at 4000 feet AGL, broken clouds at 10000 feet AGL
Text:PADU 232256Z 08007KT 10SM SCT016 BKN025 BKN040 BKN130 07/03 A3017 RMK AO2 SLP220 T00720033
Temperature: 7.2°C ( 45°F)
Dewpoint: 3.3°C ( 38°F) [RH = 76%]
Pressure (altimeter):30.17 inches Hg (1021.8 mb) [Sea level pressure: 1022.0 mb]
Winds:from the E (80 degrees) at 8 MPH (7 knots; 3.6 m/s)
Visibility:10 or more sm (16+ km)
Ceiling:2500 feet AGL
Clouds: scattered clouds at 1600 feet AGL, broken clouds at 2500 feet AGL, broken clouds at 4000 feet AGL, broken clouds at 13000 feet AGL
Text:PADU 232156Z 36010KT 10SM BKN016 BKN022 OVC030 07/03 A3017 RMK AO2 SLP220 T00720028
Temperature: 7.2°C ( 45°F)
Dewpoint: 2.8°C ( 37°F) [RH = 74%]
Pressure (altimeter):30.17 inches Hg (1021.8 mb) [Sea level pressure: 1022.0 mb]
Winds:from the N (360 degrees) at 12 MPH (10 knots; 5.1 m/s)
Visibility:10 or more sm (16+ km)
Ceiling:1600 feet AGL
Clouds: broken clouds at 1600 feet AGL, broken clouds at 2200 feet AGL, overcast cloud deck at 3000 feet AGL
Text:PADU 232056Z 35009KT 10SM BKN016 BKN022 OVC030 07/03 A3017 RMK AO2 SLP222 T00670033 53005
Temperature: 6.7°C ( 44°F)
Dewpoint: 3.3°C ( 38°F) [RH = 79%]
Pressure (altimeter):30.17 inches Hg (1021.8 mb) [Sea level pressure: 1022.2 mb]
Winds:from the N (350 degrees) at 10 MPH (9 knots; 4.6 m/s)
Visibility:10 or more sm (16+ km)
Ceiling:1600 feet AGL
Clouds: broken clouds at 1600 feet AGL, broken clouds at 2200 feet AGL, overcast cloud deck at 3000 feet AGL
Text:PADU 231956Z 36010KT 10SM BKN016 OVC025 07/03 A3016 RMK AO2 SLP219 T00670033
Temperature: 6.7°C ( 44°F)
Dewpoint: 3.3°C ( 38°F) [RH = 79%]
Pressure (altimeter):30.16 inches Hg (1021.4 mb) [Sea level pressure: 1021.9 mb]
Winds:from the N (360 degrees) at 12 MPH (10 knots; 5.1 m/s)
Visibility:10 or more sm (16+ km)
Ceiling:1600 feet AGL
Clouds: broken clouds at 1600 feet AGL, overcast cloud deck at 2500 feet AGL

TAF for:PADU (Dutch Harbor/Madsen, AK, US) issued at 2331 UTC 23 May 2019
Text:PADU 232331Z 2400/2424 05007KT P6SM SCT015 BKN025
Forecast period:0000 to 0600 UTC 24 May 2019
Forecast type:FROM: standard forecast or significant change
Winds:from the NE (50 degrees) at 8 MPH (7 knots; 3.6 m/s)
Visibility:6 or more sm (10+ km)
Ceiling:2500 feet AGL
Clouds: scattered clouds at 1500 feet AGL, broken clouds at 2500 feet AGL
Text:TEMPO 2400/2404 SCT025
Forecast period:0000 to 0400 UTC 24 May 2019
Forecast type:TEMPORARY: The following changes expected for less than half the time period
Ceiling:at least 12,000 feet AGL
Clouds: scattered clouds at 2500 feet AGL
Text:FM240600 06009KT P6SM -RA SCT015 OVC025
Forecast period:0600 to 1200 UTC 24 May 2019
Forecast type:FROM: standard forecast or significant change
Winds:from the ENE (60 degrees) at 10 MPH (9 knots; 4.6 m/s)
Visibility:6 or more sm (10+ km)
Ceiling:2500 feet AGL
Clouds: scattered clouds at 1500 feet AGL, overcast cloud deck at 2500 feet AGL
Weather:-RA (light rain)
Text:FM241200 06012G20KT P6SM SCT015 OVC025
Forecast period:1200 to 1500 UTC 24 May 2019
Forecast type:FROM: standard forecast or significant change
Winds:from the ENE (60 degrees) at 14 MPH (12 knots; 6.2 m/s) gusting to 23 MPH (20 knots; 10.3 m/s)
Visibility:6 or more sm (10+ km)
Ceiling:2500 feet AGL
Clouds: scattered clouds at 1500 feet AGL, overcast cloud deck at 2500 feet AGL
Text:FM241500 07012G20KT 4SM -RA OVC015
Forecast period:1500 UTC 24 May 2019 to 0000 UTC 25 May 2019
Forecast type:FROM: standard forecast or significant change
Winds:from the ENE (70 degrees) at 14 MPH (12 knots; 6.2 m/s) gusting to 23 MPH (20 knots; 10.3 m/s)
Visibility: 4 sm ( 6 km)
Ceiling:1500 feet AGL
Clouds: overcast cloud deck at 1500 feet AGL
Weather:-RA (light rain)